Time;durP1;ratioP1;P1;durP2;ratioP2;P2;SDS_P1;SDS_P2;PMS_P1;PMS_P2;Temp;Humidity;BMP_temperature;BMP_pressure;BME280_temperature;BME280_humidity;BME280_pressure;Samples;Min_cycle;Max_cycle;Signal;HPM_P1;HPM_P2
2022/04/16 00:00:49;;;;;;;1.52;1.42;;;4.50;99.90;;;;;;7379949;19;20424;-71
2022/04/16 00:03:15;;;;;;;2.60;1.85;;;4.60;99.90;;;;;;7379570;19;20379;-70
2022/04/16 00:05:41;;;;;;;3.60;1.70;;;4.40;99.90;;;;;;7380413;19;20344;-73
2022/04/16 00:08:06;;;;;;;1.50;1.40;;;4.40;99.90;;;;;;7378954;19;20378;-73
2022/04/16 00:10:36;;;;;;;3.25;1.90;;;4.40;99.90;;;;;;7380596;19;20308;-71
2022/04/16 00:13:01;;;;;;;2.17;1.70;;;4.40;99.90;;;;;;7379349;19;20674;-70
2022/04/16 00:15:27;;;;;;;2.75;1.90;;;4.40;99.90;;;;;;7381018;19;20336;-73
2022/04/16 00:17:54;;;;;;;1.60;1.47;;;4.30;99.90;;;;;;7382922;19;20336;-75
2022/04/16 00:20:20;;;;;;;2.30;1.50;;;4.30;99.90;;;;;;7381334;19;20352;-73
2022/04/16 00:22:45;;;;;;;2.93;1.50;;;4.30;99.90;;;;;;7380813;19;20373;-72
2022/04/16 00:25:13;;;;;;;3.47;1.50;;;4.20;99.90;;;;;;7381435;19;20909;-77
2022/04/16 00:27:39;;;;;;;2.78;1.63;;;4.20;99.90;;;;;;7380032;19;20347;-74
2022/04/16 00:30:05;;;;;;;1.67;1.42;;;4.20;99.90;;;;;;7379976;19;20329;-72
2022/04/16 00:32:31;;;;;;;1.70;1.55;;;4.20;99.90;;;;;;7379483;19;20352;-75
2022/04/16 00:34:57;;;;;;;1.70;1.60;;;4.20;99.90;;;;;;7378476;19;20355;-73
2022/04/16 00:37:23;;;;;;;3.80;1.70;;;4.20;99.90;;;;;;7380364;19;20785;-71
2022/04/16 00:39:48;;;;;;;1.63;1.50;;;4.20;99.90;;;;;;7380107;19;20340;-72
2022/04/16 00:42:14;;;;;;;2.70;1.50;;;4.20;99.90;;;;;;7379464;19;20340;-74
2022/04/16 00:44:40;;;;;;;3.53;1.63;;;4.20;99.90;;;;;;7381901;19;20321;-73
2022/04/16 00:47:05;;;;;;;2.30;1.60;;;4.20;99.90;;;;;;7377537;19;20420;-73
2022/04/16 00:49:31;;;;;;;1.60;1.50;;;4.30;99.90;;;;;;7379559;19;20337;-71
2022/04/16 00:51:57;;;;;;;2.53;1.80;;;4.30;99.90;;;;;;7378373;19;20352;-73
2022/04/16 00:54:22;;;;;;;1.90;1.70;;;4.30;99.90;;;;;;7379767;19;20803;-74
2022/04/16 00:56:48;;;;;;;1.90;1.60;;;4.30;99.90;;;;;;7384503;19;20392;-74
2022/04/16 00:59:13;;;;;;;3.00;2.40;;;4.10;99.90;;;;;;7379841;19;20785;-73
2022/04/16 01:01:39;;;;;;;2.10;1.90;;;4.20;99.90;;;;;;7374844;19;20451;-72
2022/04/16 01:04:05;;;;;;;3.90;2.00;;;4.20;99.90;;;;;;7381896;19;20365;-77
2022/04/16 01:06:40;;;;;;;3.87;2.20;;;4.20;99.90;;;;;;7377922;19;20347;-73
2022/04/16 01:09:06;;;;;;;2.88;2.58;;;4.10;99.90;;;;;;7377178;19;20353;-74
2022/04/16 01:11:34;;;;;;;4.97;3.03;;;4.10;99.90;;;;;;7382354;19;20324;-73
2022/04/16 01:14:03;;;;;;;3.75;2.60;;;4.10;99.90;;;;;;7387215;19;25145;-75
2022/04/16 01:16:29;;;;;;;3.83;3.00;;;4.10;99.90;;;;;;7383599;19;20317;-72
2022/04/16 01:18:55;;;;;;;6.03;3.30;;;4.20;99.90;;;;;;7386400;19;20309;-73
2022/04/16 01:21:21;;;;;;;5.15;3.45;;;4.00;99.90;;;;;;7384990;19;20348;-71
2022/04/16 01:23:46;;;;;;;6.00;3.65;;;4.00;99.90;;;;;;7385705;19;20357;-73
2022/04/16 01:26:12;;;;;;;6.07;2.90;;;3.90;99.90;;;;;;7385946;19;20320;-72
2022/04/16 01:28:40;;;;;;;3.15;2.40;;;3.90;99.90;;;;;;7382892;19;20337;-73
2022/04/16 01:31:06;;;;;;;2.40;2.00;;;3.80;99.90;;;;;;7382961;19;20328;-73
2022/04/16 01:33:32;;;;;;;2.10;1.90;;;3.80;99.90;;;;;;7384957;19;20308;-75
2022/04/16 01:35:58;;;;;;;2.43;1.70;;;3.80;99.90;;;;;;7385800;19;20348;-74
2022/04/16 01:38:26;;;;;;;2.63;1.70;;;3.70;99.90;;;;;;7384027;19;20320;-74
2022/04/16 01:40:56;;;;;;;2.42;1.58;;;3.70;99.90;;;;;;7386179;19;20321;-72
2022/04/16 01:43:21;;;;;;;1.85;1.75;;;3.70;99.90;;;;;;7384409;19;20366;-72
2022/04/16 01:45:49;;;;;;;2.00;1.80;;;3.70;99.90;;;;;;7384481;19;20336;-74
2022/04/16 01:48:19;;;;;;;2.08;1.60;;;3.70;99.90;;;;;;7384588;19;20308;-76
2022/04/16 01:50:46;;;;;;;2.28;1.90;;;3.60;99.90;;;;;;7384765;19;20345;-73
2022/04/16 01:53:12;;;;;;;2.63;1.92;;;3.60;99.90;;;;;;7381499;19;20400;-75
2022/04/16 01:55:37;;;;;;;3.10;2.10;;;3.50;99.90;;;;;;7383464;19;20396;-75
2022/04/16 01:58:06;;;;;;;3.53;2.17;;;3.50;99.90;;;;;;7383998;19;20833;-72
2022/04/16 02:00:33;;;;;;;2.65;2.15;;;3.50;99.90;;;;;;7377440;19;20325;-72
2022/04/16 02:02:59;;;;;;;2.60;1.90;;;3.50;99.90;;;;;;7382075;19;20323;-71
2022/04/16 02:05:25;;;;;;;2.97;1.98;;;3.50;99.90;;;;;;7375904;19;20424;-73
2022/04/16 02:07:50;;;;;;;2.47;2.08;;;3.50;99.90;;;;;;7374289;19;20447;-71
2022/04/16 02:10:16;;;;;;;2.13;1.73;;;3.40;99.90;;;;;;7373897;19;20738;-71
2022/04/16 02:12:42;;;;;;;2.67;1.87;;;3.40;99.90;;;;;;7369799;19;20355;-75
2022/04/16 02:15:08;;;;;;;3.08;1.80;;;3.40;99.90;;;;;;7381495;19;20361;-74
2022/04/16 02:17:34;;;;;;;1.90;1.50;;;3.40;99.90;;;;;;7385093;19;20324;-75
2022/04/16 02:20:00;;;;;;;2.05;1.50;;;3.40;99.90;;;;;;7382704;19;20423;-72
2022/04/16 02:22:26;;;;;;;2.33;1.60;;;3.40;99.90;;;;;;7380962;19;20300;-78
2022/04/16 02:24:51;;;;;;;1.70;1.40;;;3.30;99.90;;;;;;7383371;19;20341;-73
2022/04/16 02:27:17;;;;;;;1.50;1.40;;;3.30;99.90;;;;;;7383557;19;20328;-69
2022/04/16 02:29:43;;;;;;;1.52;1.40;;;3.20;99.90;;;;;;7385265;19;20325;-75
2022/04/16 02:32:09;;;;;;;1.70;1.20;;;3.20;99.90;;;;;;7378988;19;20345;-73
2022/04/16 02:34:34;;;;;;;1.50;1.40;;;3.20;99.90;;;;;;7383494;19;20312;-73
2022/04/16 02:37:00;;;;;;;2.60;1.45;;;3.10;99.90;;;;;;7383490;19;20321;-72
2022/04/16 02:39:26;;;;;;;2.40;1.45;;;3.00;99.90;;;;;;7382208;19;20305;-72
2022/04/16 02:41:52;;;;;;;1.60;1.50;;;3.00;99.90;;;;;;7378091;19;20340;-73
2022/04/16 02:47:05;;;;;;;1.83;1.50;;;3.00;99.90;;;;;;7280394;19;2004521;-72
2022/04/16 02:49:31;;;;;;;2.13;1.40;;;3.00;99.90;;;;;;7384217;19;20347;-73
2022/04/16 02:51:56;;;;;;;2.15;1.52;;;2.90;99.90;;;;;;7380017;19;20344;-73
2022/04/16 02:54:25;;;;;;;1.50;1.40;;;3.00;99.90;;;;;;7381649;19;20738;-73
2022/04/16 02:56:50;;;;;;;1.60;1.50;;;2.90;99.90;;;;;;7383207;19;20345;-73
2022/04/16 02:59:16;;;;;;;1.52;1.42;;;2.90;99.90;;;;;;7383395;19;20340;-72
2022/04/16 03:01:42;;;;;;;1.50;1.40;;;3.00;99.90;;;;;;7379007;19;20352;-73
2022/04/16 03:04:07;;;;;;;1.50;1.40;;;3.00;99.90;;;;;;7379795;19;20328;-71
2022/04/16 03:06:33;;;;;;;1.90;1.57;;;3.00;99.90;;;;;;7370784;19;20412;-72
2022/04/16 03:08:58;;;;;;;1.80;1.60;;;2.90;99.90;;;;;;7379523;19;20371;-72
2022/04/16 03:11:24;;;;;;;1.67;1.30;;;2.90;99.90;;;;;;7380462;19;20324;-71
2022/04/16 03:13:50;;;;;;;1.95;1.60;;;2.90;99.90;;;;;;7380243;19;20345;-72
2022/04/16 03:19:00;;;;;;;1.50;1.40;;;3.00;99.90;;;;;;7382087;19;20834;-73
2022/04/16 03:21:25;;;;;;;1.60;1.40;;;2.90;99.90;;;;;;7378355;19;20316;-72
2022/04/16 03:23:51;;;;;;;3.17;1.70;;;2.90;99.90;;;;;;7381047;19;20305;-73
2022/04/16 03:26:17;;;;;;;1.60;1.50;;;2.90;99.90;;;;;;7378766;19;21139;-73
2022/04/16 03:28:42;;;;;;;1.77;1.30;;;2.80;99.90;;;;;;7380378;19;20368;-71
2022/04/16 03:31:08;;;;;;;1.30;1.20;;;2.90;99.90;;;;;;7380103;19;20336;-73
2022/04/16 03:33:33;;;;;;;1.80;1.40;;;2.90;99.90;;;;;;7377466;19;20315;-71
2022/04/16 03:35:59;;;;;;;2.00;1.42;;;2.90;99.90;;;;;;7379273;19;20349;-72
2022/04/16 03:38:25;;;;;;;1.60;1.43;;;3.00;99.90;;;;;;7381270;19;20316;-72
2022/04/16 03:40:50;;;;;;;1.80;1.30;;;3.00;99.90;;;;;;7381010;19;20341;-72
2022/04/16 03:43:18;;;;;;;1.30;1.20;;;3.00;99.90;;;;;;7379091;19;20342;-73
2022/04/16 03:45:44;;;;;;;1.30;1.20;;;3.00;99.90;;;;;;7379736;19;20415;-73
2022/04/16 03:48:10;;;;;;;2.05;1.30;;;3.00;99.90;;;;;;7379537;19;21070;-73
2022/04/16 03:50:36;;;;;;;1.60;1.40;;;3.00;99.90;;;;;;7380606;19;20316;-72
2022/04/16 03:53:02;;;;;;;1.67;1.27;;;3.00;99.90;;;;;;7379826;19;20352;-71
2022/04/16 04:00:58;;;;;;;1.38;1.20;;;3.00;99.90;;;;;;7379711;19;20324;-71
2022/04/16 04:03:24;;;;;;;2.42;1.63;;;3.00;99.90;;;;;;7379192;19;20332;-80
2022/04/16 04:05:53;;;;;;;1.50;1.30;;;3.00;99.90;;;;;;7380284;19;20301;-73
2022/04/16 04:08:19;;;;;;;1.40;1.30;;;2.90;99.90;;;;;;7380386;19;20340;-72
2022/04/16 04:10:46;;;;;;;1.40;1.30;;;2.90;99.90;;;;;;7379734;19;21177;-75
2022/04/16 04:13:12;;;;;;;1.15;1.10;;;2.90;99.90;;;;;;7379213;19;20332;-70
2022/04/16 04:15:37;;;;;;;1.95;1.23;;;2.90;99.90;;;;;;7377197;19;20984;-73
2022/04/16 04:18:03;;;;;;;1.30;1.20;;;2.80;99.90;;;;;;7377597;19;20328;-73
2022/04/16 04:20:29;;;;;;;1.48;1.25;;;2.80;99.90;;;;;;7380271;19;20312;-72
2022/04/16 04:22:55;;;;;;;1.40;1.13;;;2.70;99.90;;;;;;7378347;19;20336;-74
2022/04/16 04:25:20;;;;;;;1.40;1.30;;;2.70;99.90;;;;;;7378094;19;20326;-73
2022/04/16 04:27:46;;;;;;;1.70;1.50;;;2.60;99.90;;;;;;7377028;19;20320;-77
2022/04/16 04:30:12;;;;;;;1.38;1.27;;;2.50;99.90;;;;;;7381558;19;20994;-73
2022/04/16 04:32:37;;;;;;;1.40;1.30;;;2.60;99.90;;;;;;7381161;19;20342;-72
2022/04/16 04:35:04;;;;;;;1.43;1.33;;;2.50;99.90;;;;;;7379241;19;20332;-77
2022/04/16 04:37:30;;;;;;;1.55;1.30;;;2.50;99.90;;;;;;7376152;19;21160;-73
2022/04/16 04:39:55;;;;;;;2.10;1.80;;;2.50;99.90;;;;;;7377816;19;20376;-73
2022/04/16 04:42:33;;;;;;;2.67;1.75;;;2.40;99.90;;;;;;7375636;19;20518;-71
2022/04/16 04:44:59;;;;;;;2.65;2.28;;;2.50;99.90;;;;;;7377275;19;20344;-73
2022/04/16 04:47:25;;;;;;;3.15;2.25;;;2.50;99.90;;;;;;7378260;19;20351;-73
2022/04/16 04:49:50;;;;;;;2.37;2.17;;;2.50;99.90;;;;;;7377884;19;20340;-72
2022/04/16 04:52:29;;;;;;;2.40;2.20;;;2.60;99.90;;;;;;7376276;19;20332;-72
2022/04/16 04:54:58;;;;;;;3.53;1.70;;;2.60;99.90;;;;;;7375845;19;20356;-72
2022/04/16 04:57:24;;;;;;;1.70;1.60;;;2.50;99.90;;;;;;7376766;19;20714;-72
2022/04/16 04:59:49;;;;;;;2.00;1.80;;;2.60;99.90;;;;;;7376627;19;20332;-73
2022/04/16 05:02:15;;;;;;;2.42;2.00;;;2.60;99.90;;;;;;7376469;19;20683;-71
2022/04/16 05:04:41;;;;;;;2.00;1.80;;;2.60;99.90;;;;;;7380379;19;20669;-73
2022/04/16 05:07:07;;;;;;;2.30;2.00;;;2.70;99.90;;;;;;7374540;19;20361;-76
2022/04/16 05:09:33;;;;;;;1.97;1.73;;;2.70;99.90;;;;;;7378693;19;20316;-74
2022/04/16 05:11:58;;;;;;;2.17;1.70;;;2.70;99.90;;;;;;7375870;19;20305;-72
2022/04/16 05:14:24;;;;;;;2.25;1.80;;;2.70;99.90;;;;;;7377061;19;21130;-72
2022/04/16 05:16:50;;;;;;;2.20;1.50;;;2.80;99.90;;;;;;7376998;19;20735;-73
2022/04/16 05:19:15;;;;;;;1.70;1.50;;;2.80;99.90;;;;;;7377048;19;20345;-72
2022/04/16 05:21:41;;;;;;;1.47;1.37;;;2.80;99.90;;;;;;7377129;19;20364;-72
2022/04/16 05:24:07;;;;;;;1.92;1.70;;;2.80;99.90;;;;;;7377577;19;20329;-71
2022/04/16 05:26:33;;;;;;;1.75;1.35;;;2.90;99.90;;;;;;7376908;19;20320;-72
2022/04/16 05:28:59;;;;;;;1.67;1.58;;;2.90;99.90;;;;;;7375387;19;20333;-72
2022/04/16 05:31:26;;;;;;;1.50;1.30;;;2.90;99.90;;;;;;7377283;19;20317;-73
2022/04/16 05:36:39;;;;;;;2.20;1.50;;;3.10;99.90;;;;;;7378936;19;20734;-73
2022/04/16 05:39:04;;;;;;;1.27;1.23;;;3.20;99.90;;;;;;7374105;19;20333;-71
2022/04/16 05:41:32;;;;;;;2.17;1.40;;;3.30;99.90;;;;;;7376106;19;20308;-74
2022/04/16 05:43:59;;;;;;;1.42;1.33;;;3.40;99.90;;;;;;7377916;19;20336;-78
2022/04/16 05:46:24;;;;;;;2.40;1.45;;;3.40;99.90;;;;;;7377877;19;20924;-78
2022/04/16 05:48:50;;;;;;;3.63;1.60;;;3.60;99.90;;;;;;7378075;19;20605;-73
2022/04/16 05:51:16;;;;;;;1.60;1.50;;;3.60;99.90;;;;;;7376403;19;20348;-74
2022/04/16 05:53:41;;;;;;;1.97;1.70;;;3.70;99.90;;;;;;7375598;19;20339;-73
2022/04/16 05:56:07;;;;;;;2.00;1.75;;;3.70;99.90;;;;;;7377077;19;20881;-74
2022/04/16 05:58:33;;;;;;;2.15;1.60;;;3.80;99.90;;;;;;7385428;19;20693;-74
2022/04/16 06:00:59;;;;;;;1.75;1.50;;;3.80;99.90;;;;;;7383297;19;20392;-75
2022/04/16 06:03:25;;;;;;;2.30;1.70;;;4.00;99.90;;;;;;7384033;19;21447;-76
2022/04/16 06:05:52;;;;;;;2.30;1.30;;;4.10;99.90;;;;;;7384493;19;20362;-75
2022/04/16 06:08:18;;;;;;;2.00;1.58;;;4.20;99.90;;;;;;7384603;19;20328;-82
2022/04/16 06:10:44;;;;;;;2.33;1.40;;;4.20;99.90;;;;;;7384881;19;20308;-76
2022/04/16 06:13:11;;;;;;;2.85;1.65;;;4.30;99.90;;;;;;7380707;19;20409;-77
2022/04/16 06:15:41;;;;;;;3.10;1.70;;;4.40;99.90;;;;;;7390804;19;20334;-79
2022/04/16 06:18:08;;;;;;;3.20;1.40;;;4.50;99.90;;;;;;7387394;19;20399;-82
2022/04/16 06:20:34;;;;;;;2.95;2.45;;;4.60;99.90;;;;;;7382394;19;20337;-75
2022/04/16 06:23:00;;;;;;;1.95;1.73;;;4.60;99.90;;;;;;7382318;19;20357;-75
2022/04/16 06:25:26;;;;;;;2.03;1.85;;;4.60;99.90;;;;;;7383630;19;21167;-72
2022/04/16 06:27:51;;;;;;;2.70;1.65;;;4.70;99.90;;;;;;7382197;19;20368;-75
2022/04/16 06:30:17;;;;;;;1.70;1.33;;;4.80;99.90;;;;;;7382354;19;20329;-73
2022/04/16 06:32:43;;;;;;;1.40;1.30;;;4.90;99.90;;;;;;7380100;19;20353;-76
2022/04/16 06:35:10;;;;;;;2.27;1.50;;;5.00;99.90;;;;;;7380530;19;20345;-72
2022/04/16 06:37:36;;;;;;;1.92;1.40;;;5.00;99.90;;;;;;7382172;19;20376;-71
2022/04/16 06:40:02;;;;;;;1.60;1.25;;;5.10;99.90;;;;;;7382820;19;20464;-76
2022/04/16 06:42:28;;;;;;;1.65;1.33;;;5.20;99.90;;;;;;7381045;19;20320;-77
2022/04/16 06:44:54;;;;;;;1.55;1.40;;;5.30;99.90;;;;;;7381529;19;20324;-75
2022/04/16 06:47:19;;;;;;;1.17;1.10;;;5.40;99.90;;;;;;7381229;19;20363;-72
2022/04/16 06:49:45;;;;;;;1.40;1.30;;;5.50;99.90;;;;;;7385056;19;20349;-72
2022/04/16 06:52:12;;;;;;;1.50;1.40;;;5.60;99.90;;;;;;7380269;19;20332;-72
2022/04/16 06:54:38;;;;;;;1.33;1.23;;;5.80;99.90;;;;;;7374347;19;20328;-73
2022/04/16 06:57:04;;;;;;;1.50;1.40;;;5.90;99.90;;;;;;7380471;19;21104;-73
2022/04/16 06:59:30;;;;;;;2.00;1.50;;;6.10;99.90;;;;;;7381799;19;20358;-72
2022/04/16 07:01:55;;;;;;;1.83;1.40;;;6.10;99.90;;;;;;7378523;19;20340;-73
2022/04/16 07:04:21;;;;;;;1.30;1.20;;;6.10;99.90;;;;;;7381542;19;20860;-71
2022/04/16 07:06:46;;;;;;;2.20;1.38;;;6.10;99.90;;;;;;7380197;19;20336;-72
2022/04/16 07:09:12;;;;;;;2.50;1.30;;;6.10;99.90;;;;;;7380842;19;20340;-72
2022/04/16 07:11:38;;;;;;;1.30;1.20;;;6.00;99.90;;;;;;7379830;19;20305;-77
2022/04/16 07:14:15;;;;;;;1.93;1.37;;;6.00;99.90;;;;;;7308036;19;20414;-72
2022/04/16 07:16:44;;;;;;;1.23;1.10;;;6.20;99.90;;;;;;7377490;19;20447;-70
2022/04/16 07:19:10;;;;;;;1.63;1.30;;;6.30;99.90;;;;;;7379717;19;20829;-72
2022/04/16 07:21:35;;;;;;;1.87;1.20;;;6.50;99.90;;;;;;7376926;19;20356;-71
2022/04/16 07:24:01;;;;;;;1.83;1.38;;;6.70;99.90;;;;;;7369621;19;20751;-72
2022/04/16 07:26:27;;;;;;;3.00;1.53;;;7.00;99.90;;;;;;7378038;19;20340;-72
2022/04/16 07:28:52;;;;;;;2.03;1.60;;;6.80;99.90;;;;;;7377728;19;20396;-73
2022/04/16 07:31:18;;;;;;;1.55;1.27;;;6.90;99.90;;;;;;7377966;19;20386;-74
2022/04/16 07:33:44;;;;;;;2.50;1.40;;;6.90;99.90;;;;;;7377145;19;20337;-74
2022/04/16 07:36:09;;;;;;;1.50;1.20;;;6.90;99.90;;;;;;7379730;19;20357;-73
2022/04/16 07:38:35;;;;;;;1.23;1.17;;;6.90;99.90;;;;;;7380595;19;20313;-74
2022/04/16 07:41:02;;;;;;;1.65;1.15;;;6.90;99.90;;;;;;7380383;19;20329;-75
2022/04/16 07:43:32;;;;;;;1.52;1.20;;;7.10;99.90;;;;;;7377356;19;20309;-73
2022/04/16 07:45:58;;;;;;;1.80;1.42;;;7.30;99.90;;;;;;7379799;19;20308;-72
2022/04/16 07:48:24;;;;;;;1.40;1.30;;;7.70;99.90;;;;;;7379544;19;20667;-73
2022/04/16 07:50:50;;;;;;;1.85;1.35;;;7.90;99.90;;;;;;7379785;19;20367;-73
2022/04/16 07:53:15;;;;;;;1.45;1.27;;;8.00;99.90;;;;;;7378637;19;20399;-72
2022/04/16 07:55:41;;;;;;;1.30;1.20;;;7.90;99.90;;;;;;7378201;19;20357;-72
2022/04/16 07:58:07;;;;;;;1.95;1.40;;;8.00;99.90;;;;;;7380225;19;20313;-76
2022/04/16 08:00:32;;;;;;;1.60;1.10;;;7.80;99.90;;;;;;7383233;19;20320;-72
2022/04/16 08:02:58;;;;;;;1.40;1.27;;;7.90;99.90;;;;;;7380759;19;20360;-73
2022/04/16 08:05:23;;;;;;;2.23;1.20;;;7.90;99.90;;;;;;7376973;19;20392;-75
2022/04/16 08:07:49;;;;;;;1.08;1.00;;;7.90;99.90;;;;;;7378064;19;20332;-73
2022/04/16 08:10:15;;;;;;;3.05;1.35;;;8.10;99.90;;;;;;7380108;19;20320;-71
2022/04/16 08:12:40;;;;;;;1.30;1.20;;;8.00;99.90;;;;;;7377901;19;20348;-73
2022/04/16 08:15:06;;;;;;;1.70;1.10;;;8.00;99.90;;;;;;7375565;19;20340;-74
2022/04/16 08:17:33;;;;;;;1.63;1.40;;;8.10;99.90;;;;;;7376609;19;21153;-72
2022/04/16 08:19:59;;;;;;;1.77;1.23;;;8.40;99.90;;;;;;7379068;19;21064;-72
2022/04/16 08:22:28;;;;;;;1.30;1.20;;;8.50;99.90;;;;;;7378263;19;20360;-78
2022/04/16 08:27:46;;;;;;;1.48;1.23;;;8.60;99.90;;;;;;7376359;19;20325;-79
2022/04/16 08:30:13;;;;;;;1.20;1.10;;;8.70;99.90;;;;;;7376881;19;20344;-78
2022/04/16 08:32:41;;;;;;;1.65;1.15;;;8.80;99.90;;;;;;7379402;19;20344;-72
2022/04/16 08:35:07;;;;;;;3.60;1.50;;;8.90;99.90;;;;;;7379495;19;20333;-73
2022/04/16 08:37:33;;;;;;;2.43;1.30;;;8.90;99.90;;;;;;7379083;19;20331;-72
2022/04/16 08:40:00;;;;;;;1.95;1.25;;;8.90;99.90;;;;;;7380066;19;20321;-71
2022/04/16 08:42:25;;;;;;;1.30;1.20;;;9.10;99.90;;;;;;7382971;19;20325;-77
2022/04/16 08:44:51;;;;;;;2.00;1.50;;;8.70;99.90;;;;;;7379870;19;20443;-73
2022/04/16 08:47:17;;;;;;;1.92;1.30;;;8.80;99.90;;;;;;7379678;19;20837;-70
2022/04/16 08:49:43;;;;;;;1.93;1.20;;;8.90;99.90;;;;;;7381131;19;20343;-73
2022/04/16 08:52:09;;;;;;;2.30;1.20;;;8.90;99.90;;;;;;7376841;19;20862;-71
2022/04/16 08:54:36;;;;;;;1.60;1.30;;;9.00;99.90;;;;;;7380008;19;20297;-71
2022/04/16 08:57:02;;;;;;;1.43;1.30;;;8.90;99.90;;;;;;7378963;19;20353;-72
2022/04/16 08:59:28;;;;;;;1.20;1.10;;;9.10;99.90;;;;;;7378604;19;20317;-72
2022/04/16 09:01:53;;;;;;;1.33;1.23;;;9.30;99.90;;;;;;7378524;19;20285;-74
2022/04/16 09:04:22;;;;;;;1.83;1.20;;;9.50;99.90;;;;;;7378589;19;20663;-71
2022/04/16 09:06:56;;;;;;;2.00;1.20;;;9.60;99.90;;;;;;7379084;19;20337;-73
2022/04/16 09:09:22;;;;;;;1.40;1.27;;;9.80;99.90;;;;;;7379693;19;20404;-73
2022/04/16 09:11:50;;;;;;;1.67;1.38;;;9.80;99.90;;;;;;7377407;19;20740;-71
2022/04/16 09:14:16;;;;;;;1.50;1.40;;;9.80;99.90;;;;;;7380070;19;20696;-73
2022/04/16 09:16:42;;;;;;;1.40;1.30;;;9.50;99.90;;;;;;7380220;19;20790;-78
2022/04/16 09:19:11;;;;;;;1.27;1.17;;;9.40;99.90;;;;;;7379828;19;20332;-74
2022/04/16 09:21:37;;;;;;;1.60;1.10;;;9.50;99.90;;;;;;7376813;19;20317;-77
2022/04/16 09:24:03;;;;;;;1.05;1.02;;;9.60;99.90;;;;;;7379685;19;20314;-72
2022/04/16 09:26:36;;;;;;;1.48;1.23;;;9.70;99.90;;;;;;7376436;19;20358;-71
2022/04/16 09:29:12;;;;;;;2.20;1.20;;;9.90;99.90;;;;;;7377391;19;20321;-77
2022/04/16 09:31:39;;;;;;;1.40;1.30;;;10.20;99.90;;;;;;7374920;19;21014;-73
2022/04/16 09:34:25;;;;;;;1.42;1.02;;;10.40;99.90;;;;;;7383266;19;20324;-77
2022/04/16 09:36:52;;;;;;;1.33;0.98;;;10.60;99.90;;;;;;7382089;19;20437;-74
2022/04/16 09:39:22;;;;;;;2.30;1.40;;;10.50;99.90;;;;;;7383539;19;20355;-73
2022/04/16 09:41:49;;;;;;;1.13;1.02;;;10.50;99.90;;;;;;7380734;19;21220;-72
2022/04/16 09:44:19;;;;;;;1.85;1.15;;;10.60;99.90;;;;;;7382787;19;20379;-75
2022/04/16 09:46:45;;;;;;;1.30;1.20;;;11.00;99.90;;;;;;7382608;19;20391;-73
2022/04/16 09:49:11;;;;;;;1.30;1.20;;;11.20;99.90;;;;;;7382676;19;20305;-72
2022/04/16 09:51:37;;;;;;;2.95;1.13;;;11.40;99.90;;;;;;7376826;19;20341;-75
2022/04/16 09:54:04;;;;;;;1.10;1.10;;;11.60;99.90;;;;;;7379758;19;20320;-75
2022/04/16 09:56:33;;;;;;;1.55;1.15;;;11.90;99.90;;;;;;7380678;19;20327;-73
2022/04/16 09:58:59;;;;;;;1.73;1.20;;;12.30;99.90;;;;;;7381091;19;20340;-74
2022/04/16 10:01:25;;;;;;;1.50;1.40;;;12.60;99.90;;;;;;7383292;19;20849;-70
2022/04/16 10:03:54;;;;;;;4.05;1.38;;;12.60;99.90;;;;;;7381432;19;20334;-70
2022/04/16 10:06:20;;;;;;;1.20;1.10;;;12.80;99.90;;;;;;7384511;19;20873;-72
2022/04/16 10:08:50;;;;;;;3.95;1.40;;;13.10;99.90;;;;;;7383960;19;20340;-72
2022/04/16 10:11:42;;;;;;;1.17;1.02;;;13.30;99.90;;;;;;7384538;19;20717;-73
2022/04/16 10:14:12;;;;;;;1.25;1.10;;;13.50;97.70;;;;;;7282664;19;2004201;-71
2022/04/16 10:16:44;;;;;;;1.30;1.20;;;13.40;97.70;;;;;;7384917;19;20329;-72
2022/04/16 10:19:16;;;;;;;1.10;1.00;;;13.40;95.50;;;;;;7282526;19;2004438;-72
2022/04/16 10:21:42;;;;;;;1.02;1.00;;;13.40;94.50;;;;;;7383087;19;20312;-72
2022/04/16 10:24:08;;;;;;;1.30;1.20;;;13.20;96.70;;;;;;7387009;19;20361;-72
2022/04/16 10:26:38;;;;;;;1.10;1.00;;;13.30;97.50;;;;;;7384060;19;20324;-72
2022/04/16 10:29:04;;;;;;;1.20;1.00;;;13.20;95.20;;;;;;7385546;19;20305;-72
2022/04/16 10:31:30;;;;;;;1.02;0.98;;;13.00;96.60;;;;;;7379478;19;20686;-72
2022/04/16 10:33:57;;;;;;;1.00;1.00;;;13.10;94.50;;;;;;7383801;19;20388;-69
2022/04/16 10:36:28;;;;;;;0.80;0.80;;;13.50;93.90;;;;;;7385020;19;20685;-71
2022/04/16 10:38:54;;;;;;;1.10;1.00;;;14.20;93.10;;;;;;7382435;19;20333;-72
2022/04/16 10:41:20;;;;;;;1.70;1.02;;;14.00;90.10;;;;;;7384315;19;20321;-71
2022/04/16 10:43:59;;;;;;;0.95;0.95;;;14.20;91.70;;;;;;7380838;19;20390;-71
2022/04/16 10:46:47;;;;;;;0.93;0.93;;;14.60;92.20;;;;;;7382079;19;20305;-72
2022/04/16 10:49:13;;;;;;;1.33;1.08;;;14.80;84.90;;;;;;7280127;19;2004357;-73
2022/04/16 10:51:39;;;;;;;0.90;0.90;;;14.90;82.80;;;;;;7382162;19;20356;-72
2022/04/16 10:54:14;;;;;;;1.70;0.97;;;15.00;79.60;;;;;;7378957;19;20893;-72
2022/04/16 10:56:44;;;;;;;0.90;0.90;;;15.50;84.10;;;;;;7382002;19;20797;-72
2022/04/16 10:59:11;;;;;;;0.90;0.90;;;15.70;80.50;;;;;;7383818;19;20669;-74
2022/04/16 11:01:37;;;;;;;1.40;1.30;;;15.90;80.20;;;;;;7380090;19;20315;-73
2022/04/16 11:04:14;;;;;;;2.35;1.38;;;15.80;80.90;;;;;;7380565;19;20317;-72
2022/04/16 11:06:51;;;;;;;1.42;1.33;;;15.70;77.30;;;;;;7379776;19;20370;-72
2022/04/16 11:09:18;;;;;;;2.25;1.05;;;16.10;79.80;;;;;;7381183;19;20345;-73
2022/04/16 11:11:46;;;;;;;1.20;1.10;;;16.50;77.40;;;;;;7379368;19;20341;-72
2022/04/16 11:14:12;;;;;;;1.35;1.10;;;16.80;75.80;;;;;;7380293;19;20289;-73
2022/04/16 11:16:47;;;;;;;1.07;1.00;;;16.10;69.60;;;;;;7380665;19;20336;-74
2022/04/16 11:19:15;;;;;;;0.80;0.80;;;16.10;75.30;;;;;;7381929;19;20352;-72
2022/04/16 11:21:41;;;;;;;2.30;1.08;;;15.80;75.60;;;;;;7380103;19;20366;-72
2022/04/16 11:24:07;;;;;;;2.50;1.10;;;15.90;77.20;;;;;;7382092;19;20670;-72
2022/04/16 11:34:56;;;;;;;1.15;1.05;;;15.40;69.60;;;;;;7278738;19;2005045;-72
2022/04/16 11:37:22;;;;;;;1.20;1.00;;;14.00;67.70;;;;;;7278645;19;2004577;-72
2022/04/16 11:40:05;;;;;;;2.07;0.93;;;14.60;70.10;;;;;;7382525;19;20338;-73
2022/04/16 11:42:31;;;;;;;1.17;1.00;;;15.60;74.20;;;;;;7379044;19;21510;-73
2022/04/16 11:44:57;;;;;;;1.40;1.10;;;16.30;73.00;;;;;;7378741;19;20467;-72
2022/04/16 11:47:22;;;;;;;1.47;1.10;;;16.50;70.10;;;;;;7379883;19;20320;-72
2022/04/16 11:50:00;;;;;;;1.20;1.10;;;17.10;70.80;;;;;;7382853;19;20943;-71
2022/04/16 11:52:30;;;;;;;1.25;1.15;;;17.80;69.20;;;;;;7378876;19;20411;-72
2022/04/16 11:55:04;;;;;;;1.10;1.10;;;17.90;68.40;;;;;;7379849;19;20758;-72
2022/04/16 11:57:30;;;;;;;1.37;1.20;;;16.70;63.40;;;;;;7377949;19;20329;-72
2022/04/16 12:00:07;;;;;;;1.30;1.20;;;15.90;65.70;;;;;;7382499;19;20309;-72
2022/04/16 12:02:36;;;;;;;1.30;1.10;;;16.00;68.90;;;;;;7278116;19;2004380;-72
2022/04/16 12:05:08;;;;;;;1.20;1.10;;;16.40;67.80;;;;;;7378898;19;20351;-72
2022/04/16 12:07:34;;;;;;;1.40;1.10;;;17.30;67.10;;;;;;7382959;19;20324;-72
2022/04/16 12:10:04;;;;;;;1.17;1.13;;;17.40;60.50;;;;;;7383067;19;20300;-72
2022/04/16 12:12:38;;;;;;;1.85;1.15;;;17.50;60.90;;;;;;7376289;19;20321;-72
2022/04/16 12:15:04;;;;;;;1.20;0.90;;;17.70;62.40;;;;;;7377891;19;21522;-71
2022/04/16 12:17:30;;;;;;;0.85;0.82;;;18.00;63.70;;;;;;7377170;19;20947;-73
2022/04/16 12:20:06;;;;;;;1.65;1.20;;;18.70;62.60;;;;;;7382616;19;20339;-73
2022/04/16 12:22:33;;;;;;;2.28;1.00;;;18.20;59.00;;;;;;7277281;19;2004383;-72
2022/04/16 12:25:07;;;;;;;1.10;1.00;;;18.20;57.90;;;;;;7376993;19;20329;-72
2022/04/16 12:27:33;;;;;;;1.08;0.98;;;18.80;62.80;;;;;;7380829;19;20337;-73
2022/04/16 12:29:59;;;;;;;1.42;1.20;;;19.10;57.60;;;;;;7382899;19;20383;-73
2022/04/16 12:32:26;;;;;;;1.77;1.00;;;19.40;59.80;;;;;;7377642;19;21687;-73
2022/04/16 12:34:52;;;;;;;3.73;1.00;;;19.50;55.00;;;;;;7379245;19;20348;-72
2022/04/16 12:37:18;;;;;;;1.10;1.00;;;19.20;55.00;;;;;;7379992;19;20398;-73
2022/04/16 12:39:44;;;;;;;1.20;1.20;;;18.80;53.40;;;;;;7379637;19;20374;-73
2022/04/16 12:42:10;;;;;;;2.80;1.17;;;19.20;59.50;;;;;;7378721;19;20385;-72
2022/04/16 12:44:35;;;;;;;1.00;0.90;;;19.00;55.60;;;;;;7378382;19;20408;-72
2022/04/16 12:47:01;;;;;;;1.00;0.90;;;19.20;57.30;;;;;;7376270;19;20988;-72
2022/04/16 12:49:27;;;;;;;0.93;0.93;;;19.80;57.80;;;;;;7377790;19;20348;-73
2022/04/16 12:51:52;;;;;;;0.97;0.90;;;20.20;57.40;;;;;;7375045;19;20332;-72
2022/04/16 12:54:18;;;;;;;1.20;1.10;;;20.40;55.40;;;;;;7377975;19;20367;-73
2022/04/16 12:56:46;;;;;;;1.00;1.00;;;21.10;55.90;;;;;;7379167;19;20344;-73
2022/04/16 12:59:15;;;;;;;1.45;1.05;;;21.80;54.10;;;;;;7377462;19;20337;-73
2022/04/16 13:01:41;;;;;;;1.20;1.10;;;22.30;55.30;;;;;;7374862;19;20374;-73
2022/04/16 13:04:06;;;;;;;1.60;1.35;;;20.80;49.10;;;;;;7377513;19;20840;-73
2022/04/16 13:06:32;;;;;;;1.17;1.00;;;20.60;50.00;;;;;;7379036;19;20733;-72
2022/04/16 13:09:02;;;;;;;1.43;1.30;;;20.50;52.30;;;;;;7385713;19;20709;-72
2022/04/16 13:11:28;;;;;;;1.17;1.08;;;20.80;52.70;;;;;;7382344;19;20370;-72
2022/04/16 13:13:54;;;;;;;1.00;1.00;;;21.40;51.70;;;;;;7382010;19;20336;-72
2022/04/16 13:16:19;;;;;;;1.10;1.10;;;21.60;51.90;;;;;;7382156;19;20338;-71